sensor_id;sensor_type;location;lat;lon;timestamp;P1;durP1;ratioP1;P2;durP2;ratioP2
70635;SDS011;58206;47.310;19.502;2023-08-30T00:02:46;0.30;;;0.00;;
70635;SDS011;58206;47.310;19.502;2023-08-30T00:05:30;0.77;;;0.32;;
70635;SDS011;58206;47.310;19.502;2023-08-30T00:08:15;0.95;;;0.52;;
70635;SDS011;58206;47.310;19.502;2023-08-30T00:11:02;0.52;;;0.17;;
70635;SDS011;58206;47.310;19.502;2023-08-30T00:13:48;1.05;;;0.57;;
70635;SDS011;58206;47.310;19.502;2023-08-30T00:16:33;1.47;;;0.53;;
70635;SDS011;58206;47.310;19.502;2023-08-30T00:19:18;0.85;;;0.30;;
70635;SDS011;58206;47.310;19.502;2023-08-30T00:22:02;0.50;;;0.15;;
70635;SDS011;58206;47.310;19.502;2023-08-30T00:24:47;2.47;;;1.60;;
70635;SDS011;58206;47.310;19.502;2023-08-30T00:27:31;0.77;;;0.45;;
70635;SDS011;58206;47.310;19.502;2023-08-30T00:30:16;1.33;;;0.70;;
70635;SDS011;58206;47.310;19.502;2023-08-30T00:33:00;0.55;;;0.28;;
70635;SDS011;58206;47.310;19.502;2023-08-30T00:35:45;0.85;;;0.30;;
70635;SDS011;58206;47.310;19.502;2023-08-30T00:38:30;0.65;;;0.30;;
70635;SDS011;58206;47.310;19.502;2023-08-30T00:41:14;1.27;;;0.55;;
70635;SDS011;58206;47.310;19.502;2023-08-30T00:43:59;0.70;;;0.37;;
70635;SDS011;58206;47.310;19.502;2023-08-30T00:46:44;1.38;;;0.85;;
70635;SDS011;58206;47.310;19.502;2023-08-30T00:49:32;0.73;;;0.25;;
70635;SDS011;58206;47.310;19.502;2023-08-30T00:52:16;1.52;;;0.95;;
70635;SDS011;58206;47.310;19.502;2023-08-30T00:55:01;0.73;;;0.32;;
70635;SDS011;58206;47.310;19.502;2023-08-30T00:57:46;0.40;;;0.10;;
70635;SDS011;58206;47.310;19.502;2023-08-30T01:00:30;1.25;;;0.85;;
70635;SDS011;58206;47.310;19.502;2023-08-30T01:03:15;1.65;;;0.75;;
70635;SDS011;58206;47.310;19.502;2023-08-30T01:06:00;1.00;;;0.43;;
70635;SDS011;58206;47.310;19.502;2023-08-30T01:08:45;0.40;;;0.10;;
70635;SDS011;58206;47.310;19.502;2023-08-30T01:14:44;0.38;;;0.10;;
70635;SDS011;58206;47.310;19.502;2023-08-30T01:17:29;0.30;;;0.10;;
70635;SDS011;58206;47.310;19.502;2023-08-30T01:20:15;0.60;;;0.30;;
70635;SDS011;58206;47.310;19.502;2023-08-30T01:28:31;0.77;;;0.30;;
70635;SDS011;58206;47.310;19.502;2023-08-30T01:31:17;0.85;;;0.40;;
70635;SDS011;58206;47.310;19.502;2023-08-30T01:34:03;1.45;;;0.98;;
70635;SDS011;58206;47.310;19.502;2023-08-30T01:36:48;0.70;;;0.32;;
70635;SDS011;58206;47.310;19.502;2023-08-30T01:39:32;0.90;;;0.27;;
70635;SDS011;58206;47.310;19.502;2023-08-30T01:42:17;0.52;;;0.22;;
70635;SDS011;58206;47.310;19.502;2023-08-30T01:45:06;0.30;;;0.05;;
70635;SDS011;58206;47.310;19.502;2023-08-30T01:47:52;0.50;;;0.20;;
70635;SDS011;58206;47.310;19.502;2023-08-30T01:50:39;0.38;;;0.10;;
70635;SDS011;58206;47.310;19.502;2023-08-30T01:53:24;0.97;;;0.30;;
70635;SDS011;58206;47.310;19.502;2023-08-30T01:56:09;0.10;;;0.00;;
70635;SDS011;58206;47.310;19.502;2023-08-30T01:58:53;0.30;;;0.10;;
70635;SDS011;58206;47.310;19.502;2023-08-30T02:01:38;0.88;;;0.30;;
70635;SDS011;58206;47.310;19.502;2023-08-30T02:04:22;0.30;;;0.00;;
70635;SDS011;58206;47.310;19.502;2023-08-30T02:07:08;1.27;;;0.40;;
70635;SDS011;58206;47.310;19.502;2023-08-30T02:09:57;0.50;;;0.13;;
70635;SDS011;58206;47.310;19.502;2023-08-30T02:12:49;0.55;;;0.20;;
70635;SDS011;58206;47.310;19.502;2023-08-30T02:15:34;0.30;;;0.00;;
70635;SDS011;58206;47.310;19.502;2023-08-30T02:18:20;0.50;;;0.10;;
70635;SDS011;58206;47.310;19.502;2023-08-30T02:21:04;0.47;;;0.10;;
70635;SDS011;58206;47.310;19.502;2023-08-30T02:23:49;0.95;;;0.43;;
70635;SDS011;58206;47.310;19.502;2023-08-30T02:26:34;0.52;;;0.15;;
70635;SDS011;58206;47.310;19.502;2023-08-30T02:29:18;0.35;;;0.10;;
70635;SDS011;58206;47.310;19.502;2023-08-30T02:32:03;0.45;;;0.20;;
70635;SDS011;58206;47.310;19.502;2023-08-30T02:34:49;0.50;;;0.10;;
70635;SDS011;58206;47.310;19.502;2023-08-30T02:37:33;0.82;;;0.30;;
70635;SDS011;58206;47.310;19.502;2023-08-30T02:40:18;0.80;;;0.55;;
70635;SDS011;58206;47.310;19.502;2023-08-30T02:43:02;1.15;;;0.35;;
70635;SDS011;58206;47.310;19.502;2023-08-30T02:45:46;1.15;;;0.22;;
70635;SDS011;58206;47.310;19.502;2023-08-30T02:48:34;0.50;;;0.20;;
70635;SDS011;58206;47.310;19.502;2023-08-30T02:51:18;0.73;;;0.30;;
70635;SDS011;58206;47.310;19.502;2023-08-30T02:54:02;0.20;;;0.00;;
70635;SDS011;58206;47.310;19.502;2023-08-30T02:56:47;0.32;;;0.10;;
70635;SDS011;58206;47.310;19.502;2023-08-30T02:59:31;0.40;;;0.10;;
70635;SDS011;58206;47.310;19.502;2023-08-30T03:02:21;0.70;;;0.30;;
70635;SDS011;58206;47.310;19.502;2023-08-30T03:05:05;1.15;;;0.43;;
70635;SDS011;58206;47.310;19.502;2023-08-30T03:07:50;0.40;;;0.20;;
70635;SDS011;58206;47.310;19.502;2023-08-30T03:10:35;0.47;;;0.15;;
70635;SDS011;58206;47.310;19.502;2023-08-30T03:13:20;0.20;;;0.00;;
70635;SDS011;58206;47.310;19.502;2023-08-30T03:16:15;1.97;;;1.03;;
70635;SDS011;58206;47.310;19.502;2023-08-30T03:19:01;0.55;;;0.20;;
70635;SDS011;58206;47.310;19.502;2023-08-30T03:21:47;0.55;;;0.25;;
70635;SDS011;58206;47.310;19.502;2023-08-30T03:24:32;0.40;;;0.20;;
70635;SDS011;58206;47.310;19.502;2023-08-30T03:27:16;0.60;;;0.30;;
70635;SDS011;58206;47.310;19.502;2023-08-30T03:30:01;0.80;;;0.20;;
70635;SDS011;58206;47.310;19.502;2023-08-30T03:32:49;0.47;;;0.20;;
70635;SDS011;58206;47.310;19.502;2023-08-30T03:35:34;0.57;;;0.15;;
70635;SDS011;58206;47.310;19.502;2023-08-30T03:38:19;0.35;;;0.13;;
70635;SDS011;58206;47.310;19.502;2023-08-30T03:41:04;0.82;;;0.70;;
70635;SDS011;58206;47.310;19.502;2023-08-30T03:43:48;0.40;;;0.20;;
70635;SDS011;58206;47.310;19.502;2023-08-30T03:46:33;0.43;;;0.10;;
70635;SDS011;58206;47.310;19.502;2023-08-30T03:49:17;0.47;;;0.17;;
70635;SDS011;58206;47.310;19.502;2023-08-30T03:52:04;0.55;;;0.20;;
70635;SDS011;58206;47.310;19.502;2023-08-30T03:54:48;0.20;;;0.00;;
70635;SDS011;58206;47.310;19.502;2023-08-30T03:57:33;0.40;;;0.10;;
70635;SDS011;58206;47.310;19.502;2023-08-30T04:00:17;0.40;;;0.10;;
70635;SDS011;58206;47.310;19.502;2023-08-30T04:03:01;0.47;;;0.10;;
70635;SDS011;58206;47.310;19.502;2023-08-30T04:05:46;0.30;;;0.10;;
70635;SDS011;58206;47.310;19.502;2023-08-30T04:08:30;0.75;;;0.40;;
70635;SDS011;58206;47.310;19.502;2023-08-30T04:11:15;0.13;;;0.00;;
70635;SDS011;58206;47.310;19.502;2023-08-30T04:13:59;0.30;;;0.10;;
70635;SDS011;58206;47.310;19.502;2023-08-30T04:16:44;0.20;;;0.00;;
70635;SDS011;58206;47.310;19.502;2023-08-30T04:19:28;0.60;;;0.30;;
70635;SDS011;58206;47.310;19.502;2023-08-30T04:22:12;0.55;;;0.25;;
70635;SDS011;58206;47.310;19.502;2023-08-30T04:24:57;1.17;;;0.93;;
70635;SDS011;58206;47.310;19.502;2023-08-30T04:27:42;0.75;;;0.52;;
70635;SDS011;58206;47.310;19.502;2023-08-30T04:30:27;0.50;;;0.10;;
70635;SDS011;58206;47.310;19.502;2023-08-30T04:33:11;0.55;;;0.28;;
70635;SDS011;58206;47.310;19.502;2023-08-30T04:35:56;0.40;;;0.10;;
70635;SDS011;58206;47.310;19.502;2023-08-30T04:38:41;0.77;;;0.40;;
70635;SDS011;58206;47.310;19.502;2023-08-30T04:41:25;0.43;;;0.10;;
70635;SDS011;58206;47.310;19.502;2023-08-30T04:44:09;0.30;;;0.10;;
70635;SDS011;58206;47.310;19.502;2023-08-30T04:46:54;0.30;;;0.00;;
70635;SDS011;58206;47.310;19.502;2023-08-30T04:49:40;0.40;;;0.10;;
70635;SDS011;58206;47.310;19.502;2023-08-30T04:52:24;0.90;;;0.50;;
70635;SDS011;58206;47.310;19.502;2023-08-30T04:55:11;0.30;;;0.10;;
70635;SDS011;58206;47.310;19.502;2023-08-30T04:57:55;0.30;;;0.10;;
70635;SDS011;58206;47.310;19.502;2023-08-30T05:00:40;0.25;;;0.00;;
70635;SDS011;58206;47.310;19.502;2023-08-30T05:03:25;0.30;;;0.00;;
70635;SDS011;58206;47.310;19.502;2023-08-30T05:06:10;2.67;;;0.77;;
70635;SDS011;58206;47.310;19.502;2023-08-30T05:08:57;1.00;;;0.43;;
70635;SDS011;58206;47.310;19.502;2023-08-30T05:11:42;0.70;;;0.38;;
70635;SDS011;58206;47.310;19.502;2023-08-30T05:14:27;1.45;;;0.68;;
70635;SDS011;58206;47.310;19.502;2023-08-30T05:17:11;0.50;;;0.28;;
70635;SDS011;58206;47.310;19.502;2023-08-30T05:19:55;0.53;;;0.20;;
70635;SDS011;58206;47.310;19.502;2023-08-30T05:22:40;0.80;;;0.47;;
70635;SDS011;58206;47.310;19.502;2023-08-30T05:25:24;0.63;;;0.22;;
70635;SDS011;58206;47.310;19.502;2023-08-30T05:28:09;0.65;;;0.25;;
70635;SDS011;58206;47.310;19.502;2023-08-30T05:30:53;0.30;;;0.00;;
70635;SDS011;58206;47.310;19.502;2023-08-30T05:34:07;2.03;;;1.33;;
70635;SDS011;58206;47.310;19.502;2023-08-30T05:37:12;0.82;;;0.40;;
70635;SDS011;58206;47.310;19.502;2023-08-30T05:40:32;0.50;;;0.10;;
70635;SDS011;58206;47.310;19.502;2023-08-30T05:46:14;0.75;;;0.22;;
70635;SDS011;58206;47.310;19.502;2023-08-30T05:48:59;0.50;;;0.13;;
70635;SDS011;58206;47.310;19.502;2023-08-30T05:51:47;0.95;;;0.55;;
70635;SDS011;58206;47.310;19.502;2023-08-30T05:54:32;0.65;;;0.38;;
70635;SDS011;58206;47.310;19.502;2023-08-30T05:57:17;0.63;;;0.30;;
70635;SDS011;58206;47.310;19.502;2023-08-30T06:00:02;0.93;;;0.40;;
70635;SDS011;58206;47.310;19.502;2023-08-30T06:02:58;1.07;;;0.30;;
70635;SDS011;58206;47.310;19.502;2023-08-30T06:05:42;0.68;;;0.38;;
70635;SDS011;58206;47.310;19.502;2023-08-30T06:08:30;0.80;;;0.25;;
70635;SDS011;58206;47.310;19.502;2023-08-30T06:11:14;2.72;;;0.65;;
70635;SDS011;58206;47.310;19.502;2023-08-30T06:13:59;1.73;;;0.63;;
70635;SDS011;58206;47.310;19.502;2023-08-30T06:16:44;0.50;;;0.20;;
70635;SDS011;58206;47.310;19.502;2023-08-30T06:19:28;1.45;;;0.82;;
70635;SDS011;58206;47.310;19.502;2023-08-30T06:22:13;0.88;;;0.20;;
70635;SDS011;58206;47.310;19.502;2023-08-30T06:24:57;1.20;;;0.50;;
70635;SDS011;58206;47.310;19.502;2023-08-30T06:27:42;2.63;;;1.15;;
70635;SDS011;58206;47.310;19.502;2023-08-30T06:30:29;1.27;;;0.73;;
70635;SDS011;58206;47.310;19.502;2023-08-30T06:33:14;3.25;;;1.02;;
70635;SDS011;58206;47.310;19.502;2023-08-30T06:35:58;2.58;;;1.17;;
70635;SDS011;58206;47.310;19.502;2023-08-30T06:38:43;2.38;;;1.05;;
70635;SDS011;58206;47.310;19.502;2023-08-30T06:41:27;2.50;;;0.93;;
70635;SDS011;58206;47.310;19.502;2023-08-30T06:44:11;2.90;;;1.50;;
70635;SDS011;58206;47.310;19.502;2023-08-30T06:46:56;2.40;;;1.20;;
70635;SDS011;58206;47.310;19.502;2023-08-30T06:49:41;2.45;;;1.00;;
70635;SDS011;58206;47.310;19.502;2023-08-30T06:52:25;2.75;;;1.17;;
70635;SDS011;58206;47.310;19.502;2023-08-30T06:55:09;2.30;;;1.13;;
70635;SDS011;58206;47.310;19.502;2023-08-30T06:57:54;2.80;;;1.00;;
70635;SDS011;58206;47.310;19.502;2023-08-30T07:00:38;3.08;;;1.38;;
70635;SDS011;58206;47.310;19.502;2023-08-30T07:03:23;3.45;;;1.67;;
70635;SDS011;58206;47.310;19.502;2023-08-30T07:06:07;3.45;;;2.00;;
70635;SDS011;58206;47.310;19.502;2023-08-30T07:08:51;2.92;;;1.63;;
70635;SDS011;58206;47.310;19.502;2023-08-30T07:11:36;3.50;;;1.40;;
70635;SDS011;58206;47.310;19.502;2023-08-30T07:14:21;3.25;;;1.80;;
70635;SDS011;58206;47.310;19.502;2023-08-30T07:17:05;3.70;;;1.85;;
70635;SDS011;58206;47.310;19.502;2023-08-30T07:19:49;2.85;;;1.40;;
70635;SDS011;58206;47.310;19.502;2023-08-30T07:22:34;2.83;;;1.55;;
70635;SDS011;58206;47.310;19.502;2023-08-30T07:25:18;3.90;;;1.70;;
70635;SDS011;58206;47.310;19.502;2023-08-30T07:28:03;2.30;;;1.00;;
70635;SDS011;58206;47.310;19.502;2023-08-30T07:30:47;4.93;;;1.75;;
70635;SDS011;58206;47.310;19.502;2023-08-30T07:33:32;3.30;;;1.77;;
70635;SDS011;58206;47.310;19.502;2023-08-30T07:36:16;2.38;;;1.05;;
70635;SDS011;58206;47.310;19.502;2023-08-30T07:39:01;3.27;;;1.33;;
70635;SDS011;58206;47.310;19.502;2023-08-30T07:41:45;2.80;;;1.30;;
70635;SDS011;58206;47.310;19.502;2023-08-30T07:44:29;3.15;;;1.65;;
70635;SDS011;58206;47.310;19.502;2023-08-30T07:47:14;4.07;;;2.38;;
70635;SDS011;58206;47.310;19.502;2023-08-30T07:49:58;2.75;;;1.42;;
70635;SDS011;58206;47.310;19.502;2023-08-30T07:52:42;4.17;;;1.70;;
70635;SDS011;58206;47.310;19.502;2023-08-30T07:55:27;3.15;;;1.75;;
70635;SDS011;58206;47.310;19.502;2023-08-30T07:58:11;2.95;;;1.50;;
70635;SDS011;58206;47.310;19.502;2023-08-30T08:00:56;3.47;;;1.88;;
70635;SDS011;58206;47.310;19.502;2023-08-30T08:03:40;3.78;;;2.28;;
70635;SDS011;58206;47.310;19.502;2023-08-30T08:06:25;3.80;;;1.97;;
70635;SDS011;58206;47.310;19.502;2023-08-30T08:09:09;3.22;;;1.42;;
70635;SDS011;58206;47.310;19.502;2023-08-30T08:11:55;4.28;;;2.40;;
70635;SDS011;58206;47.310;19.502;2023-08-30T08:14:40;3.22;;;1.52;;
70635;SDS011;58206;47.310;19.502;2023-08-30T08:17:24;3.60;;;1.90;;
70635;SDS011;58206;47.310;19.502;2023-08-30T08:20:09;3.90;;;1.70;;
70635;SDS011;58206;47.310;19.502;2023-08-30T08:22:53;3.65;;;1.92;;
70635;SDS011;58206;47.310;19.502;2023-08-30T08:25:38;3.45;;;1.60;;
70635;SDS011;58206;47.310;19.502;2023-08-30T08:28:22;2.97;;;1.10;;
70635;SDS011;58206;47.310;19.502;2023-08-30T08:31:07;4.15;;;1.85;;
70635;SDS011;58206;47.310;19.502;2023-08-30T08:34:05;3.30;;;1.67;;
70635;SDS011;58206;47.310;19.502;2023-08-30T08:36:50;3.00;;;1.35;;
70635;SDS011;58206;47.310;19.502;2023-08-30T08:39:34;3.17;;;1.27;;
70635;SDS011;58206;47.310;19.502;2023-08-30T08:42:20;3.08;;;1.77;;
70635;SDS011;58206;47.310;19.502;2023-08-30T08:45:06;3.33;;;1.70;;
70635;SDS011;58206;47.310;19.502;2023-08-30T08:47:51;4.10;;;1.97;;
70635;SDS011;58206;47.310;19.502;2023-08-30T08:50:35;3.45;;;1.70;;
70635;SDS011;58206;47.310;19.502;2023-08-30T08:53:19;4.75;;;2.00;;
70635;SDS011;58206;47.310;19.502;2023-08-30T08:56:05;3.58;;;1.48;;
70635;SDS011;58206;47.310;19.502;2023-08-30T08:58:50;2.75;;;1.30;;
70635;SDS011;58206;47.310;19.502;2023-08-30T09:01:35;2.90;;;1.00;;
70635;SDS011;58206;47.310;19.502;2023-08-30T09:04:20;2.60;;;0.65;;
70635;SDS011;58206;47.310;19.502;2023-08-30T09:07:04;2.90;;;1.38;;
70635;SDS011;58206;47.310;19.502;2023-08-30T09:09:48;2.47;;;1.05;;
70635;SDS011;58206;47.310;19.502;2023-08-30T09:12:34;3.25;;;1.65;;
70635;SDS011;58206;47.310;19.502;2023-08-30T09:15:18;2.27;;;1.10;;
70635;SDS011;58206;47.310;19.502;2023-08-30T09:18:03;3.00;;;1.15;;
70635;SDS011;58206;47.310;19.502;2023-08-30T09:20:47;1.73;;;0.75;;
70635;SDS011;58206;47.310;19.502;2023-08-30T09:23:31;2.78;;;1.08;;
70635;SDS011;58206;47.310;19.502;2023-08-30T09:26:17;2.08;;;1.10;;
70635;SDS011;58206;47.310;19.502;2023-08-30T09:29:05;2.23;;;1.00;;
70635;SDS011;58206;47.310;19.502;2023-08-30T09:31:53;3.03;;;1.58;;
70635;SDS011;58206;47.310;19.502;2023-08-30T09:34:45;2.45;;;1.20;;
70635;SDS011;58206;47.310;19.502;2023-08-30T09:37:30;3.40;;;1.52;;
70635;SDS011;58206;47.310;19.502;2023-08-30T09:40:20;4.22;;;1.48;;
70635;SDS011;58206;47.310;19.502;2023-08-30T09:43:05;3.63;;;2.10;;
70635;SDS011;58206;47.310;19.502;2023-08-30T09:45:50;3.03;;;1.42;;
70635;SDS011;58206;47.310;19.502;2023-08-30T09:48:35;2.78;;;1.33;;
70635;SDS011;58206;47.310;19.502;2023-08-30T09:51:21;2.83;;;1.23;;
70635;SDS011;58206;47.310;19.502;2023-08-30T09:54:15;2.47;;;1.10;;
70635;SDS011;58206;47.310;19.502;2023-08-30T09:57:02;2.57;;;1.27;;
70635;SDS011;58206;47.310;19.502;2023-08-30T09:59:47;3.80;;;1.65;;
70635;SDS011;58206;47.310;19.502;2023-08-30T10:02:33;3.50;;;1.73;;
70635;SDS011;58206;47.310;19.502;2023-08-30T10:05:17;2.15;;;0.90;;
70635;SDS011;58206;47.310;19.502;2023-08-30T10:08:03;2.53;;;1.10;;
70635;SDS011;58206;47.310;19.502;2023-08-30T10:10:48;1.40;;;0.60;;
70635;SDS011;58206;47.310;19.502;2023-08-30T10:13:35;3.90;;;1.67;;
70635;SDS011;58206;47.310;19.502;2023-08-30T10:16:19;2.40;;;0.98;;
70635;SDS011;58206;47.310;19.502;2023-08-30T10:19:17;1.02;;;0.43;;
70635;SDS011;58206;47.310;19.502;2023-08-30T10:22:04;2.05;;;1.10;;
70635;SDS011;58206;47.310;19.502;2023-08-30T10:24:55;2.30;;;1.03;;
70635;SDS011;58206;47.310;19.502;2023-08-30T10:27:41;1.30;;;0.55;;
70635;SDS011;58206;47.310;19.502;2023-08-30T10:30:27;3.03;;;1.27;;
70635;SDS011;58206;47.310;19.502;2023-08-30T10:33:12;1.48;;;0.60;;
70635;SDS011;58206;47.310;19.502;2023-08-30T10:36:06;2.03;;;1.10;;
70635;SDS011;58206;47.310;19.502;2023-08-30T10:38:51;1.53;;;0.60;;
70635;SDS011;58206;47.310;19.502;2023-08-30T10:41:36;2.17;;;1.30;;
70635;SDS011;58206;47.310;19.502;2023-08-30T10:44:20;1.42;;;0.57;;
70635;SDS011;58206;47.310;19.502;2023-08-30T10:47:06;2.20;;;0.80;;
70635;SDS011;58206;47.310;19.502;2023-08-30T10:49:50;1.52;;;0.93;;
70635;SDS011;58206;47.310;19.502;2023-08-30T10:52:37;2.07;;;1.37;;
70635;SDS011;58206;47.310;19.502;2023-08-30T10:55:22;2.88;;;1.33;;
70635;SDS011;58206;47.310;19.502;2023-08-30T10:58:07;1.63;;;0.90;;
70635;SDS011;58206;47.310;19.502;2023-08-30T11:00:58;1.05;;;0.50;;
70635;SDS011;58206;47.310;19.502;2023-08-30T11:03:42;3.70;;;1.55;;
70635;SDS011;58206;47.310;19.502;2023-08-30T11:06:27;1.43;;;0.73;;
70635;SDS011;58206;47.310;19.502;2023-08-30T11:09:22;2.80;;;1.52;;
70635;SDS011;58206;47.310;19.502;2023-08-30T11:12:06;1.67;;;0.85;;
70635;SDS011;58206;47.310;19.502;2023-08-30T11:14:54;2.65;;;0.98;;
70635;SDS011;58206;47.310;19.502;2023-08-30T11:17:39;2.53;;;1.27;;
70635;SDS011;58206;47.310;19.502;2023-08-30T11:20:23;2.60;;;1.10;;
70635;SDS011;58206;47.310;19.502;2023-08-30T11:23:08;2.15;;;0.95;;
70635;SDS011;58206;47.310;19.502;2023-08-30T11:25:52;2.58;;;1.08;;
70635;SDS011;58206;47.310;19.502;2023-08-30T11:31:45;2.75;;;0.98;;
70635;SDS011;58206;47.310;19.502;2023-08-30T11:34:31;1.03;;;0.50;;
70635;SDS011;58206;47.310;19.502;2023-08-30T11:37:15;2.67;;;1.10;;
70635;SDS011;58206;47.310;19.502;2023-08-30T11:40:01;1.58;;;0.70;;
70635;SDS011;58206;47.310;19.502;2023-08-30T11:43:50;3.30;;;1.50;;
70635;SDS011;58206;47.310;19.502;2023-08-30T11:46:34;2.90;;;1.75;;
70635;SDS011;58206;47.310;19.502;2023-08-30T11:49:19;2.57;;;1.07;;
70635;SDS011;58206;47.310;19.502;2023-08-30T11:52:03;1.67;;;0.80;;
70635;SDS011;58206;47.310;19.502;2023-08-30T11:54:48;0.90;;;0.28;;
70635;SDS011;58206;47.310;19.502;2023-08-30T11:57:33;2.10;;;1.10;;
70635;SDS011;58206;47.310;19.502;2023-08-30T12:00:18;1.83;;;0.77;;
70635;SDS011;58206;47.310;19.502;2023-08-30T12:03:05;2.47;;;1.40;;
70635;SDS011;58206;47.310;19.502;2023-08-30T12:05:50;2.05;;;0.80;;
70635;SDS011;58206;47.310;19.502;2023-08-30T12:08:34;4.47;;;1.80;;
70635;SDS011;58206;47.310;19.502;2023-08-30T12:11:19;2.25;;;0.90;;
70635;SDS011;58206;47.310;19.502;2023-08-30T12:14:04;2.25;;;0.93;;
70635;SDS011;58206;47.310;19.502;2023-08-30T12:16:48;1.80;;;0.80;;
70635;SDS011;58206;47.310;19.502;2023-08-30T12:19:33;3.22;;;1.75;;
70635;SDS011;58206;47.310;19.502;2023-08-30T12:22:17;2.83;;;1.50;;
70635;SDS011;58206;47.310;19.502;2023-08-30T12:25:02;4.40;;;1.35;;
70635;SDS011;58206;47.310;19.502;2023-08-30T12:27:46;1.70;;;0.85;;
70635;SDS011;58206;47.310;19.502;2023-08-30T12:30:31;1.33;;;0.53;;
70635;SDS011;58206;47.310;19.502;2023-08-30T12:33:16;1.38;;;0.43;;
70635;SDS011;58206;47.310;19.502;2023-08-30T12:36:00;1.08;;;0.45;;
70635;SDS011;58206;47.310;19.502;2023-08-30T12:38:45;1.15;;;0.40;;
70635;SDS011;58206;47.310;19.502;2023-08-30T12:41:29;1.17;;;0.55;;
70635;SDS011;58206;47.310;19.502;2023-08-30T12:44:14;2.67;;;0.93;;
70635;SDS011;58206;47.310;19.502;2023-08-30T12:46:58;1.70;;;1.02;;
70635;SDS011;58206;47.310;19.502;2023-08-30T12:49:43;1.05;;;0.40;;
70635;SDS011;58206;47.310;19.502;2023-08-30T12:52:27;1.45;;;0.57;;
70635;SDS011;58206;47.310;19.502;2023-08-30T12:55:12;1.05;;;0.45;;
70635;SDS011;58206;47.310;19.502;2023-08-30T12:57:56;0.97;;;0.50;;
70635;SDS011;58206;47.310;19.502;2023-08-30T13:00:41;1.00;;;0.38;;
70635;SDS011;58206;47.310;19.502;2023-08-30T13:03:25;2.40;;;0.98;;
70635;SDS011;58206;47.310;19.502;2023-08-30T13:06:10;2.83;;;1.20;;
70635;SDS011;58206;47.310;19.502;2023-08-30T13:08:54;0.70;;;0.30;;
70635;SDS011;58206;47.310;19.502;2023-08-30T13:11:38;1.00;;;0.57;;
70635;SDS011;58206;47.310;19.502;2023-08-30T13:14:23;1.60;;;0.68;;
70635;SDS011;58206;47.310;19.502;2023-08-30T13:17:07;1.30;;;0.50;;
70635;SDS011;58206;47.310;19.502;2023-08-30T13:19:52;2.08;;;0.88;;
70635;SDS011;58206;47.310;19.502;2023-08-30T13:22:36;1.55;;;0.63;;
70635;SDS011;58206;47.310;19.502;2023-08-30T13:25:21;0.90;;;0.50;;
70635;SDS011;58206;47.310;19.502;2023-08-30T13:28:06;1.40;;;0.43;;
70635;SDS011;58206;47.310;19.502;2023-08-30T13:30:51;0.50;;;0.20;;
70635;SDS011;58206;47.310;19.502;2023-08-30T13:33:36;0.80;;;0.43;;
70635;SDS011;58206;47.310;19.502;2023-08-30T13:36:20;1.42;;;0.60;;
70635;SDS011;58206;47.310;19.502;2023-08-30T13:39:04;1.23;;;0.40;;
70635;SDS011;58206;47.310;19.502;2023-08-30T13:41:49;0.82;;;0.30;;
70635;SDS011;58206;47.310;19.502;2023-08-30T13:44:33;1.65;;;0.73;;
70635;SDS011;58206;47.310;19.502;2023-08-30T13:47:21;2.60;;;0.82;;
70635;SDS011;58206;47.310;19.502;2023-08-30T13:50:06;1.90;;;0.68;;
70635;SDS011;58206;47.310;19.502;2023-08-30T13:52:50;1.33;;;0.50;;
70635;SDS011;58206;47.310;19.502;2023-08-30T13:55:34;0.63;;;0.28;;
70635;SDS011;58206;47.310;19.502;2023-08-30T13:58:19;0.80;;;0.30;;
70635;SDS011;58206;47.310;19.502;2023-08-30T14:01:03;1.02;;;0.50;;
70635;SDS011;58206;47.310;19.502;2023-08-30T14:03:49;1.08;;;0.55;;
70635;SDS011;58206;47.310;19.502;2023-08-30T14:06:33;0.97;;;0.40;;
70635;SDS011;58206;47.310;19.502;2023-08-30T14:09:17;2.03;;;0.60;;
70635;SDS011;58206;47.310;19.502;2023-08-30T14:12:02;1.75;;;0.90;;
70635;SDS011;58206;47.310;19.502;2023-08-30T14:14:47;0.93;;;0.30;;
70635;SDS011;58206;47.310;19.502;2023-08-30T14:17:32;0.82;;;0.40;;
70635;SDS011;58206;47.310;19.502;2023-08-30T14:20:16;2.07;;;0.80;;
70635;SDS011;58206;47.310;19.502;2023-08-30T14:23:01;0.60;;;0.25;;
70635;SDS011;58206;47.310;19.502;2023-08-30T14:25:45;0.73;;;0.32;;
70635;SDS011;58206;47.310;19.502;2023-08-30T14:28:29;0.80;;;0.40;;
70635;SDS011;58206;47.310;19.502;2023-08-30T14:31:14;1.85;;;0.95;;
70635;SDS011;58206;47.310;19.502;2023-08-30T14:33:58;0.53;;;0.20;;
70635;SDS011;58206;47.310;19.502;2023-08-30T14:36:42;1.10;;;0.35;;
70635;SDS011;58206;47.310;19.502;2023-08-30T14:39:29;0.50;;;0.20;;
70635;SDS011;58206;47.310;19.502;2023-08-30T14:42:13;0.52;;;0.13;;
70635;SDS011;58206;47.310;19.502;2023-08-30T14:44:57;0.93;;;0.45;;
70635;SDS011;58206;47.310;19.502;2023-08-30T14:47:42;1.47;;;0.50;;
70635;SDS011;58206;47.310;19.502;2023-08-30T14:50:26;0.98;;;0.40;;
70635;SDS011;58206;47.310;19.502;2023-08-30T14:53:10;0.80;;;0.20;;
70635;SDS011;58206;47.310;19.502;2023-08-30T14:55:55;0.90;;;0.38;;
70635;SDS011;58206;47.310;19.502;2023-08-30T14:58:40;2.08;;;0.98;;
70635;SDS011;58206;47.310;19.502;2023-08-30T15:01:24;1.73;;;0.47;;
70635;SDS011;58206;47.310;19.502;2023-08-30T15:04:08;0.85;;;0.35;;
70635;SDS011;58206;47.310;19.502;2023-08-30T15:06:53;0.80;;;0.30;;
70635;SDS011;58206;47.310;19.502;2023-08-30T15:09:37;0.73;;;0.40;;
70635;SDS011;58206;47.310;19.502;2023-08-30T15:12:21;0.73;;;0.22;;
70635;SDS011;58206;47.310;19.502;2023-08-30T15:15:06;1.67;;;0.50;;
70635;SDS011;58206;47.310;19.502;2023-08-30T15:17:51;0.88;;;0.47;;
70635;SDS011;58206;47.310;19.502;2023-08-30T15:20:35;0.95;;;0.52;;
70635;SDS011;58206;47.310;19.502;2023-08-30T15:23:20;2.25;;;1.27;;
70635;SDS011;58206;47.310;19.502;2023-08-30T15:26:04;1.02;;;0.50;;
70635;SDS011;58206;47.310;19.502;2023-08-30T15:28:49;2.03;;;0.40;;
70635;SDS011;58206;47.310;19.502;2023-08-30T15:31:34;1.13;;;0.40;;
70635;SDS011;58206;47.310;19.502;2023-08-30T15:34:18;0.95;;;0.30;;
70635;SDS011;58206;47.310;19.502;2023-08-30T15:37:03;0.63;;;0.20;;
70635;SDS011;58206;47.310;19.502;2023-08-30T15:39:57;0.75;;;0.20;;
70635;SDS011;58206;47.310;19.502;2023-08-30T15:42:42;0.53;;;0.20;;
70635;SDS011;58206;47.310;19.502;2023-08-30T15:45:26;1.20;;;0.52;;
70635;SDS011;58206;47.310;19.502;2023-08-30T15:48:10;0.75;;;0.22;;
70635;SDS011;58206;47.310;19.502;2023-08-30T15:50:55;0.40;;;0.10;;
70635;SDS011;58206;47.310;19.502;2023-08-30T15:53:39;0.45;;;0.10;;
70635;SDS011;58206;47.310;19.502;2023-08-30T15:56:24;0.40;;;0.10;;
70635;SDS011;58206;47.310;19.502;2023-08-30T15:59:09;0.68;;;0.20;;
70635;SDS011;58206;47.310;19.502;2023-08-30T16:01:53;1.02;;;0.47;;
70635;SDS011;58206;47.310;19.502;2023-08-30T16:04:38;0.90;;;0.22;;
70635;SDS011;58206;47.310;19.502;2023-08-30T16:07:22;0.30;;;0.10;;
70635;SDS011;58206;47.310;19.502;2023-08-30T16:10:06;0.50;;;0.20;;
70635;SDS011;58206;47.310;19.502;2023-08-30T16:12:51;0.70;;;0.30;;
70635;SDS011;58206;47.310;19.502;2023-08-30T16:15:36;0.40;;;0.10;;
70635;SDS011;58206;47.310;19.502;2023-08-30T16:18:20;1.17;;;0.75;;
70635;SDS011;58206;47.310;19.502;2023-08-30T16:21:04;1.10;;;0.30;;
70635;SDS011;58206;47.310;19.502;2023-08-30T16:23:49;0.43;;;0.13;;
70635;SDS011;58206;47.310;19.502;2023-08-30T16:26:33;0.77;;;0.30;;
70635;SDS011;58206;47.310;19.502;2023-08-30T16:29:18;0.68;;;0.20;;
70635;SDS011;58206;47.310;19.502;2023-08-30T16:32:02;1.60;;;0.52;;
70635;SDS011;58206;47.310;19.502;2023-08-30T16:34:47;1.63;;;0.75;;
70635;SDS011;58206;47.310;19.502;2023-08-30T16:37:33;0.30;;;0.10;;